Time;durP1;ratioP1;P1;durP2;ratioP2;P2;SDS_P1;SDS_P2;PMS_P1;PMS_P2;Temp;Humidity;BMP_temperature;BMP_pressure;BME280_temperature;BME280_humidity;BME280_pressure;Samples;Min_cycle;Max_cycle;Signal;HPM_P1;HPM_P2
2023/10/02 00:00:42;;;;;;;7.60;3.40;;;;;;;14.12;77.83;101297.73;105586;1257;82620;-64
2023/10/02 00:03:32;;;;;;;6.30;3.40;;;;;;;14.13;78.13;101300.84;105532;1256;74815;-64
2023/10/02 00:06:02;;;;;;;7.20;3.60;;;;;;;14.14;78.13;101300.13;105746;1256;69175;-64
2023/10/02 00:09:13;;;;;;;8.90;3.20;;;;;;;14.14;78.18;101298.52;105628;1256;69176;-64
2023/10/02 00:14:34;;;;;;;7.30;3.40;;;;;;;14.14;78.40;101292.92;104869;1264;83282;-64
2023/10/02 00:19:49;;;;;;;5.90;3.60;;;;;;;14.14;78.62;101299.04;105541;1255;69171;-64
2023/10/02 00:22:35;;;;;;;6.20;3.60;;;;;;;14.19;78.57;101302.91;105569;1251;69071;-64
2023/10/02 00:25:19;;;;;;;7.50;3.20;;;;;;;14.22;78.57;101301.04;105601;1255;74846;-64
2023/10/02 00:27:51;;;;;;;8.50;3.90;;;;;;;14.24;78.68;101296.38;105611;1257;82782;-64
2023/10/02 00:30:23;;;;;;;8.20;3.80;;;;;;;14.25;78.72;101294.59;105548;1256;73441;-64
2023/10/02 00:32:51;;;;;;;8.00;3.80;;;;;;;14.27;78.79;101290.64;105556;1255;69118;-64
2023/10/02 00:35:22;;;;;;;5.60;3.50;;;;;;;14.28;78.82;101291.13;105653;1251;69196;-64
2023/10/02 00:37:51;;;;;;;5.90;3.10;;;;;;;14.29;78.98;101286.52;105660;1255;74814;-64
2023/10/02 00:40:30;;;;;;;5.50;3.20;;;;;;;14.30;78.99;101289.83;105598;1255;83261;-64
2023/10/02 00:43:33;;;;;;;5.90;3.50;;;;;;;14.30;79.15;101290.70;105561;1251;73217;-64
2023/10/02 00:45:50;;;;;;;5.80;3.40;;;;;;;14.29;79.34;101293.02;105515;1256;69738;-64
2023/10/02 00:48:25;;;;;;;7.00;3.60;;;;;;;14.29;79.33;101291.24;105547;1251;69112;-64
2023/10/02 00:50:59;;;;;;;6.30;3.20;;;;;;;14.31;79.27;101282.58;105451;1255;74846;-64
2023/10/02 00:53:40;;;;;;;5.50;3.50;;;;;;;14.33;79.27;101280.40;105580;1251;83283;-64
2023/10/02 00:56:19;;;;;;;5.60;4.00;;;;;;;14.34;79.36;101278.60;105515;1251;73803;-64
2023/10/02 00:58:55;;;;;;;7.10;4.10;;;;;;;14.34;79.48;101275.95;105469;1256;69175;-64
2023/10/02 01:01:25;;;;;;;9.10;3.50;;;;;;;14.34;79.64;101274.59;105431;1256;69198;-64
2023/10/02 01:09:30;;;;;;;7.10;3.70;;;;;;;14.31;79.92;101279.94;105589;1251;73830;-64
2023/10/02 01:11:58;;;;;;;8.00;4.30;;;;;;;14.33;80.18;101279.73;105720;1258;69231;-64
2023/10/02 01:14:47;;;;;;;6.80;3.40;;;;;;;14.33;80.21;101281.12;105729;1251;69177;-64
2023/10/02 01:17:17;;;;;;;7.80;3.90;;;;;;;14.33;80.35;101282.16;105610;1251;74804;-64
2023/10/02 01:19:57;;;;;;;7.30;3.70;;;;;;;14.31;80.16;101277.50;105613;1254;83303;-64
2023/10/02 01:22:31;;;;;;;6.70;3.80;;;;;;;14.29;80.44;101272.63;105568;1251;73700;-64
2023/10/02 01:25:13;;;;;;;5.10;3.30;;;;;;;14.29;80.51;101265.08;105485;1257;69225;-64
2023/10/02 01:27:50;;;;;;;7.20;3.90;;;;;;;14.29;80.64;101266.83;105445;1257;69220;-64
2023/10/02 01:30:22;;;;;;;6.90;3.50;;;;;;;14.28;80.70;101271.27;105596;1257;74837;-64
2023/10/02 01:33:21;;;;;;;7.10;4.00;;;;;;;14.29;80.69;101266.83;105586;1257;83289;-64
2023/10/02 01:35:56;;;;;;;8.20;4.00;;;;;;;14.31;80.83;101268.71;105616;1251;72671;-64
2023/10/02 01:38:30;;;;;;;8.30;4.50;;;;;;;14.33;80.76;101265.30;105426;1255;69263;-64
2023/10/02 01:41:04;;;;;;;6.90;3.90;;;;;;;14.35;80.98;101265.04;105580;1257;69186;-64
2023/10/02 01:43:43;;;;;;;8.00;4.00;;;;;;;14.38;80.93;101259.13;105458;1257;74836;-64
2023/10/02 01:46:17;;;;;;;9.50;3.70;;;;;;;14.39;80.84;101262.06;105777;1251;83135;-64
2023/10/02 01:48:50;;;;;;;7.20;3.80;;;;;;;14.41;80.84;101266.02;105578;1257;73604;-64
2023/10/02 01:51:25;;;;;;;7.90;3.70;;;;;;;14.42;80.93;101266.52;105534;1254;69195;-64
2023/10/02 01:53:58;;;;;;;6.20;3.50;;;;;;;14.43;80.96;101272.64;105579;1256;69061;-63
2023/10/02 01:56:30;;;;;;;8.80;4.30;;;;;;;14.43;81.08;101272.45;105546;1251;74987;-63
2023/10/02 01:59:09;;;;;;;7.20;3.90;;;;;;;14.46;81.14;101272.86;105437;1258;83317;-63
2023/10/02 02:01:55;;;;;;;6.60;3.60;;;;;;;14.46;80.94;101275.14;105579;1251;73723;-63
2023/10/02 02:04:32;;;;;;;6.60;3.80;;;;;;;14.46;80.74;101279.00;105586;1257;69248;-63
2023/10/02 02:07:04;;;;;;;7.40;4.20;;;;;;;14.47;80.72;101279.86;105622;1251;69093;-63
2023/10/02 02:09:37;;;;;;;7.20;4.30;;;;;;;14.47;80.50;101276.34;105603;1251;73755;-63
2023/10/02 02:14:52;;;;;;;;;;;;;;;14.49;80.50;101273.64;105573;1256;73548;-63
2023/10/02 02:17:23;;;;;;;5.80;3.80;;;;;;;14.49;80.55;101273.95;105423;1254;69134;-63
2023/10/02 02:19:59;;;;;;;7.00;3.80;;;;;;;14.50;80.46;101271.66;105655;1255;69160;-63
2023/10/02 02:22:32;;;;;;;10.40;3.70;;;;;;;14.53;80.53;101271.91;105587;1255;74800;-63
2023/10/02 02:25:04;;;;;;;8.90;4.60;;;;;;;14.54;80.67;101271.69;105548;1255;83168;-63
2023/10/02 02:27:32;;;;;;;6.50;3.60;;;;;;;14.54;80.55;101272.73;105490;1257;71863;-63
2023/10/02 02:30:10;;;;;;;8.20;4.10;;;;;;;14.55;80.65;101271.16;105447;1257;69460;-63
2023/10/02 02:32:52;;;;;;;5.70;3.60;;;;;;;14.56;80.66;101271.98;105391;1251;69163;-63
2023/10/02 02:35:21;;;;;;;6.10;3.70;;;;;;;14.57;80.76;101272.98;105596;1251;73547;-63
2023/10/02 02:37:50;;;;;;;6.60;3.60;;;;;;;14.59;80.64;101274.86;105647;1257;82139;-63
2023/10/02 02:40:22;;;;;;;7.00;4.00;;;;;;;14.59;80.51;101274.86;105570;1256;73950;-63
2023/10/02 02:42:54;;;;;;;6.20;3.40;;;;;;;14.59;80.60;101279.05;105603;1257;69188;-63
2023/10/02 02:45:29;;;;;;;5.50;3.50;;;;;;;14.61;80.82;101281.45;105594;1256;69125;-63
2023/10/02 02:48:10;;;;;;;7.10;3.60;;;;;;;14.63;80.96;101281.91;105593;1251;74799;-63
2023/10/02 02:50:42;;;;;;;;;;;;;;;14.63;80.97;101280.66;105617;1250;82073;-63
2023/10/02 02:53:21;;;;;;;6.50;4.00;;;;;;;14.61;81.08;101281.46;105597;1251;73634;-63
2023/10/02 02:56:16;;;;;;;11.20;4.80;;;;;;;14.61;81.10;101280.94;105650;1256;69164;-63
2023/10/02 02:58:45;;;;;;;7.20;4.40;;;;;;;14.62;81.12;101285.27;105567;1251;69205;-63
2023/10/02 03:01:21;;;;;;;7.60;3.90;;;;;;;14.63;81.12;101285.94;105657;1256;73189;-63
2023/10/02 03:03:51;;;;;;;8.00;3.70;;;;;;;14.64;81.06;101284.52;105594;1251;83330;-63
2023/10/02 03:06:24;;;;;;;7.60;3.80;;;;;;;14.65;81.09;101284.25;105608;1251;73994;-63
2023/10/02 03:08:53;;;;;;;6.70;4.00;;;;;;;14.66;81.04;101285.12;105520;1251;69180;-63
2023/10/02 03:11:28;;;;;;;7.70;3.70;;;;;;;14.65;81.28;101281.97;105628;1256;69198;-63
2023/10/02 03:14:12;;;;;;;7.50;4.20;;;;;;;14.63;81.37;101278.90;105579;1251;74800;-63
2023/10/02 03:16:45;;;;;;;6.70;4.30;;;;;;;14.64;81.48;101278.36;105567;1256;83345;-63
2023/10/02 03:19:16;;;;;;;8.80;4.00;;;;;;;14.64;81.51;101279.20;105599;1256;72645;-63
2023/10/02 03:21:47;;;;;;;6.80;4.10;;;;;;;14.65;81.47;101280.05;105614;1251;69458;-63
2023/10/02 03:24:19;;;;;;;6.50;3.50;;;;;;;14.66;81.57;101278.42;105701;1251;69222;-63
2023/10/02 03:26:52;;;;;;;7.10;4.00;;;;;;;14.68;81.58;101274.13;105599;1257;74067;-63
2023/10/02 03:29:22;;;;;;;6.70;3.90;;;;;;;14.70;81.49;101274.76;105595;1254;83306;-63
2023/10/02 03:31:51;;;;;;;8.00;4.00;;;;;;;14.71;81.63;101273.48;105604;1257;73664;-63
2023/10/02 03:34:27;;;;;;;;;;;;;;;14.71;81.80;101272.43;105584;1251;69202;-63
2023/10/02 03:37:08;;;;;;;6.20;3.30;;;;;;;14.68;82.03;101269.52;105629;1255;69207;-63
2023/10/02 03:39:52;;;;;;;6.30;3.70;;;;;;;14.68;82.07;101264.47;105620;1256;73748;-67
2023/10/02 03:42:23;;;;;;;5.70;3.50;;;;;;;14.66;82.15;101265.58;105575;1251;82177;-67
2023/10/02 03:44:58;;;;;;;6.20;3.60;;;;;;;14.66;82.24;101266.98;105596;1256;73678;-67
2023/10/02 03:47:35;;;;;;;7.90;4.10;;;;;;;14.66;82.31;101261.19;105621;1251;69215;-67
2023/10/02 03:50:11;;;;;;;7.20;4.00;;;;;;;14.65;82.16;101258.39;105560;1256;69200;-67
2023/10/02 03:52:45;;;;;;;8.50;4.20;;;;;;;14.67;82.27;101257.66;105603;1255;74626;-67
2023/10/02 03:55:18;;;;;;;9.00;3.90;;;;;;;14.68;82.26;101255.30;105643;1256;82187;-67
2023/10/02 03:57:49;;;;;;;6.00;3.70;;;;;;;14.70;82.40;101258.23;105568;1256;72707;-67
2023/10/02 04:00:21;;;;;;;6.60;3.90;;;;;;;14.68;82.47;101254.56;105631;1251;69119;-67
2023/10/02 04:02:56;;;;;;;7.30;4.00;;;;;;;14.67;82.46;101257.43;105605;1251;69053;-67
2023/10/02 04:05:34;;;;;;;6.40;3.90;;;;;;;14.70;82.54;101255.40;105593;1256;74726;-67
2023/10/02 04:08:32;;;;;;;6.80;3.70;;;;;;;14.71;82.40;101255.70;105554;1256;83332;-67
2023/10/02 04:11:03;;;;;;;7.20;4.00;;;;;;;14.72;82.40;101255.33;105608;1251;72680;-67
2023/10/02 04:13:38;;;;;;;5.80;3.50;;;;;;;14.74;82.41;101254.90;105584;1256;69191;-67
2023/10/02 04:19:00;;;;;;;6.80;4.00;;;;;;;14.78;82.37;101249.98;105535;1256;75162;-67
2023/10/02 04:21:33;;;;;;;6.70;4.10;;;;;;;14.80;82.45;101249.70;105629;1256;82509;-66
2023/10/02 04:24:09;;;;;;;6.80;4.60;;;;;;;14.82;82.28;101251.21;105565;1253;73459;-67
2023/10/02 04:26:41;;;;;;;8.80;4.40;;;;;;;14.83;82.35;101248.19;105624;1251;69044;-66
2023/10/02 04:29:26;;;;;;;6.90;4.00;;;;;;;14.84;82.26;101249.56;105580;1251;69062;-67
2023/10/02 04:32:11;;;;;;;6.60;4.00;;;;;;;14.86;82.42;101253.34;105656;1253;74816;-66
2023/10/02 04:34:54;;;;;;;8.70;3.60;;;;;;;14.87;82.47;101252.98;105596;1251;83435;-65
2023/10/02 04:37:22;;;;;;;8.00;4.20;;;;;;;14.86;82.44;101252.45;105570;1251;72663;-66
2023/10/02 04:45:25;;;;;;;8.00;3.90;;;;;;;14.82;81.98;101249.79;105604;1255;74859;-66
2023/10/02 04:47:55;;;;;;;8.80;4.20;;;;;;;14.81;82.01;101252.65;105707;1256;83398;-65
2023/10/02 04:52:56;;;;;;;11.80;4.40;;;;;;;14.82;82.12;101247.68;106025;1256;69206;-64
2023/10/02 04:55:41;;;;;;;7.80;4.10;;;;;;;14.83;82.18;101247.33;105618;1253;69080;-63
2023/10/02 04:58:19;;;;;;;8.90;4.40;;;;;;;14.83;82.36;101248.70;105801;1253;72642;-66
2023/10/02 05:03:34;;;;;;;9.00;4.50;;;;;;;14.86;82.45;101248.94;105588;1256;73615;-62
2023/10/02 05:06:04;;;;;;;8.30;4.20;;;;;;;14.89;82.19;101253.38;105983;1254;69103;-63
2023/10/02 05:08:40;;;;;;;6.50;3.90;;;;;;;14.92;82.14;101255.21;105813;1255;69714;-62
2023/10/02 05:11:26;;;;;;;8.50;4.00;;;;;;;14.94;82.21;101254.91;105632;1252;73771;-62
2023/10/02 05:16:34;;;;;;;8.40;4.20;;;;;;;15.03;81.90;101258.45;105743;1254;73768;-62
2023/10/02 05:19:09;;;;;;;7.80;4.40;;;;;;;15.07;81.76;101262.13;105723;1253;69711;-61
2023/10/02 05:21:51;;;;;;;8.50;4.50;;;;;;;15.11;81.71;101268.14;105639;1253;69180;-62
2023/10/02 05:24:22;;;;;;;7.70;4.20;;;;;;;15.15;81.57;101269.03;105923;1253;74791;-62
2023/10/02 05:26:52;;;;;;;6.90;4.10;;;;;;;15.17;81.43;101268.25;105663;1255;83029;-62
2023/10/02 05:29:41;;;;;;;10.80;4.50;;;;;;;15.20;81.36;101264.61;105664;1256;73682;-63
2023/10/02 05:41:46;;;;;;;7.20;4.20;;;;;;;15.30;81.20;101257.84;105589;1252;83490;-61
2023/10/02 05:44:55;;;;;;;10.10;4.50;;;;;;;15.33;81.19;101263.33;105748;1254;73876;-61
2023/10/02 05:47:59;;;;;;;9.40;4.80;;;;;;;15.37;81.09;101261.39;105590;1255;69176;-61
2023/10/02 05:50:40;;;;;;;7.40;4.00;;;;;;;15.40;81.12;101257.05;105685;1256;69288;-62
2023/10/02 05:54:09;;;;;;;9.00;4.00;;;;;;;15.47;81.11;101262.73;105627;1255;75187;-61
2023/10/02 05:57:16;;;;;;;8.80;4.30;;;;;;;15.50;81.11;101260.47;105913;1256;82861;-61
2023/10/02 06:03:16;;;;;;;8.40;4.60;;;;;;;15.58;81.07;101256.24;105759;1256;69223;-61
2023/10/02 06:06:17;;;;;;;7.90;4.10;;;;;;;15.62;80.94;101259.98;105722;1256;69079;-61
2023/10/02 06:09:44;;;;;;;7.30;4.10;;;;;;;15.67;80.76;101255.85;106401;1247;73900;31
2023/10/02 06:12:18;;;;;;;9.30;4.90;;;;;;;15.73;80.62;101256.70;105357;1262;83452;-63
2023/10/02 06:14:47;;;;;;;8.00;4.20;;;;;;;15.78;80.64;101258.92;105128;1260;73899;-61
2023/10/02 06:17:16;;;;;;;6.30;4.20;;;;;;;15.84;80.71;101258.81;105128;1260;69167;-61
2023/10/02 06:19:45;;;;;;;6.60;4.20;;;;;;;15.90;80.50;101259.23;105195;1260;69074;-61
2023/10/02 06:22:14;;;;;;;7.10;4.20;;;;;;;15.97;80.47;101263.87;105050;1262;239205;-61
2023/10/02 06:24:45;;;;;;;6.30;3.90;;;;;;;16.04;80.38;101266.17;105149;1260;83238;-61
2023/10/02 06:27:15;;;;;;;9.00;4.00;;;;;;;16.12;80.32;101265.48;105187;1262;73635;-61
2023/10/02 06:29:44;;;;;;;9.40;4.40;;;;;;;16.20;80.23;101264.40;105111;1259;69551;-62
2023/10/02 06:32:19;;;;;;;9.00;4.10;;;;;;;16.29;80.13;101266.42;105149;1259;69185;-64
2023/10/02 06:34:50;;;;;;;8.30;4.10;;;;;;;16.39;79.99;101271.10;105106;1260;74586;-64
2023/10/02 06:37:35;;;;;;;9.30;4.30;;;;;;;16.49;79.87;101272.57;107337;1259;82673;-64
2023/10/02 06:40:13;;;;;;;7.40;4.30;;;;;;;16.61;79.81;101272.36;105201;1259;73465;-63
2023/10/02 06:42:49;;;;;;;8.20;4.10;;;;;;;16.70;79.73;101272.79;105264;1260;69101;-64
2023/10/02 06:45:20;;;;;;;9.60;4.20;;;;;;;16.78;79.50;101267.66;105116;1262;69205;-63
2023/10/02 06:47:50;;;;;;;8.20;4.70;;;;;;;16.81;79.26;101269.09;105164;1259;73796;-64
2023/10/02 06:50:27;;;;;;;8.90;4.00;;;;;;;16.83;79.19;101271.63;105265;1262;83406;-64
2023/10/02 06:53:00;;;;;;;6.80;4.00;;;;;;;16.86;79.05;101272.20;105259;1259;73420;-64
2023/10/02 06:55:32;;;;;;;6.40;4.30;;;;;;;16.88;79.01;101271.23;105206;1260;69161;-61
2023/10/02 06:58:02;;;;;;;8.40;4.30;;;;;;;16.88;78.83;101272.26;105200;1259;69026;-65
2023/10/02 07:00:54;;;;;;;8.10;3.60;;;;;;;16.91;78.75;101273.02;105186;1260;75092;-64
2023/10/02 07:03:24;;;;;;;6.20;4.10;;;;;;;16.96;78.55;101274.02;105201;1262;83176;-63
2023/10/02 07:05:53;;;;;;;6.70;4.20;;;;;;;17.01;78.51;101269.86;105180;1260;73434;-63
2023/10/02 07:08:26;;;;;;;7.90;4.40;;;;;;;17.07;78.38;101276.84;105145;1260;69204;-64
2023/10/02 07:10:58;;;;;;;7.00;3.80;;;;;;;17.15;78.38;101279.05;105154;1261;69139;-65
2023/10/02 07:13:26;;;;;;;9.70;4.50;;;;;;;17.23;78.23;101276.37;105190;1260;74551;-68
2023/10/02 07:15:59;;;;;;;7.10;4.10;;;;;;;17.30;78.15;101272.45;105096;1259;83709;-68
2023/10/02 07:18:36;;;;;;;6.70;4.20;;;;;;;17.38;78.07;101275.92;105235;1259;72646;-68
2023/10/02 07:21:09;;;;;;;6.70;4.00;;;;;;;17.46;77.93;101274.13;105140;1262;69200;-67
2023/10/02 07:23:38;;;;;;;9.50;4.40;;;;;;;17.55;77.90;101278.25;105123;1264;69246;-69
2023/10/02 07:26:45;;;;;;;10.60;4.50;;;;;;;17.63;77.73;101276.95;105170;1259;74760;-69
2023/10/02 07:29:09;;;;;;;6.60;4.40;;;;;;;17.73;77.43;101276.75;105149;1259;83699;-69
2023/10/02 07:31:38;;;;;;;7.50;4.60;;;;;;;17.83;77.47;101278.58;105091;1262;72652;-68
2023/10/02 07:34:08;;;;;;;7.20;4.00;;;;;;;17.90;77.38;101278.38;105330;1261;69152;-68
2023/10/02 07:36:44;;;;;;;16.40;4.80;;;;;;;17.99;77.29;101274.51;105186;1262;69095;-68
2023/10/02 07:42:01;;;;;;;9.10;4.40;;;;;;;18.22;76.92;101277.86;105215;1262;83364;-68
2023/10/02 07:44:39;;;;;;;7.50;4.20;;;;;;;18.29;76.67;101279.23;105145;1262;73846;-65
2023/10/02 07:47:10;;;;;;;6.80;4.00;;;;;;;18.38;76.52;101279.25;105082;1259;69166;-65
2023/10/02 07:49:40;;;;;;;7.10;4.20;;;;;;;18.46;76.33;101279.55;105102;1259;70729;-67
2023/10/02 07:52:09;;;;;;;9.10;4.60;;;;;;;18.55;76.25;101282.25;105110;1262;75066;-63
2023/10/02 07:54:48;;;;;;;7.00;4.10;;;;;;;18.66;76.14;101284.45;105151;1260;83936;-60
2023/10/02 07:57:18;;;;;;;7.00;3.80;;;;;;;18.77;75.84;101283.82;105032;1259;73674;-58
2023/10/02 07:59:47;;;;;;;8.20;4.40;;;;;;;18.86;75.58;101281.71;105073;1258;69061;-60
2023/10/02 08:02:22;;;;;;;9.70;4.10;;;;;;;18.95;75.29;101285.10;105122;1259;69047;-63
2023/10/02 08:04:52;;;;;;;7.00;3.80;;;;;;;19.04;74.93;101281.21;105096;1262;73955;-61
2023/10/02 08:07:21;;;;;;;7.60;4.30;;;;;;;19.12;74.65;101281.63;105101;1259;82682;-64
2023/10/02 08:10:10;;;;;;;9.70;4.40;;;;;;;19.20;74.26;101277.83;105039;1260;73731;-62
2023/10/02 08:12:54;;;;;;;20.20;5.30;;;;;;;19.24;73.85;101277.92;105101;1259;69105;-61
2023/10/02 08:15:27;;;;;;;7.60;4.30;;;;;;;19.29;73.70;101270.36;105096;1262;69139;-61
2023/10/02 08:20:31;;;;;;;7.50;4.50;;;;;;;19.39;72.93;101270.08;105161;1259;83662;-60
2023/10/02 08:23:03;;;;;;;7.10;3.90;;;;;;;19.41;72.62;101271.95;105089;1259;72673;-60
2023/10/02 08:25:33;;;;;;;7.20;4.20;;;;;;;19.45;72.50;101269.59;105076;1259;69190;-62
2023/10/02 08:28:06;;;;;;;11.70;4.40;;;;;;;19.49;72.21;101270.74;105108;1259;69209;-62
2023/10/02 08:30:36;;;;;;;9.10;4.70;;;;;;;19.56;72.15;101271.54;105090;1260;75055;-60
2023/10/02 08:33:18;;;;;;;8.10;4.60;;;;;;;19.65;71.99;101272.08;105098;1259;82214;-60
2023/10/02 08:36:09;;;;;;;11.70;4.90;;;;;;;19.75;71.57;101269.34;105091;1260;73507;-59
2023/10/02 08:38:40;;;;;;;7.50;4.50;;;;;;;19.86;71.08;101271.38;105076;1260;69207;-59
2023/10/02 08:41:09;;;;;;;8.70;4.90;;;;;;;19.93;70.75;101269.51;105077;1259;69186;-60
2023/10/02 08:43:47;;;;;;;8.00;4.80;;;;;;;19.95;70.17;101272.37;105139;1259;74600;-62
2023/10/02 08:46:21;;;;;;;6.80;4.30;;;;;;;19.97;69.91;101270.86;105079;1262;83131;-62
2023/10/02 08:48:54;;;;;;;8.90;4.90;;;;;;;20.01;69.70;101272.16;105103;1262;72814;-61
2023/10/02 08:51:33;;;;;;;8.90;5.60;;;;;;;20.07;69.36;101271.12;105068;1259;69023;-61
2023/10/02 08:54:06;;;;;;;7.70;5.30;;;;;;;20.11;68.76;101268.39;105089;1262;69211;-61
2023/10/02 08:56:44;;;;;;;10.50;5.40;;;;;;;20.12;68.36;101269.37;105101;1259;74571;-61
2023/10/02 08:59:35;;;;;;;11.20;5.70;;;;;;;20.15;68.22;101269.91;105120;1260;82436;-62
2023/10/02 09:02:14;;;;;;;9.30;6.00;;;;;;;20.17;68.01;101267.61;105091;1259;73940;-62
2023/10/02 09:05:09;;;;;;;11.40;5.80;;;;;;;20.30;67.75;101270.70;105055;1259;69189;-62
2023/10/02 09:07:44;;;;;;;13.20;6.60;;;;;;;20.48;67.37;101271.00;105049;1262;69120;-62
2023/10/02 09:10:25;;;;;;;12.60;5.90;;;;;;;20.66;67.11;101272.70;105071;1259;74699;-62
2023/10/02 09:13:16;;;;;;;11.10;6.70;;;;;;;20.78;66.52;101262.85;105084;1262;83164;-62
2023/10/02 09:15:46;;;;;;;9.60;6.60;;;;;;;20.92;66.13;101258.30;105053;1260;73956;-62
2023/10/02 09:19:07;;;;;;;11.70;6.20;;;;;;;21.08;65.74;101255.50;105045;1260;69203;-62
2023/10/02 09:21:38;;;;;;;13.70;6.30;;;;;;;21.30;65.22;101247.92;105036;1259;69207;-61
2023/10/02 09:24:18;;;;;;;13.20;6.70;;;;;;;21.48;64.62;101253.65;105130;1262;73797;-61
2023/10/02 09:26:47;;;;;;;9.50;6.20;;;;;;;21.56;63.91;101247.75;105033;1262;83359;-61
2023/10/02 09:29:16;;;;;;;12.40;6.70;;;;;;;21.66;63.32;101250.66;105090;1260;73825;-61
2023/10/02 09:31:46;;;;;;;13.20;6.40;;;;;;;21.77;62.78;101250.20;105129;1259;69107;-61
2023/10/02 09:34:16;;;;;;;;;;;;;;;21.87;62.12;101242.95;105087;1259;69190;-61
2023/10/02 09:37:11;;;;;;;13.00;7.50;;;;;;;22.02;61.33;101243.63;104955;1262;74723;-61
2023/10/02 09:40:03;;;;;;;12.90;7.80;;;;;;;22.26;60.87;101243.50;105063;1262;83310;-61
2023/10/02 09:42:33;;;;;;;12.60;7.50;;;;;;;22.42;60.23;101234.38;105122;1258;73744;-62
2023/10/02 09:45:08;;;;;;;11.80;7.90;;;;;;;22.62;60.17;101232.30;105107;1260;69173;-61
2023/10/02 09:47:38;;;;;;;10.90;6.70;;;;;;;22.89;59.66;101231.20;105105;1262;69212;-63
2023/10/02 09:50:29;;;;;;;12.90;7.30;;;;;;;23.11;59.05;101223.17;104994;1260;74842;-63
2023/10/02 09:53:08;;;;;;;13.40;8.20;;;;;;;23.36;58.42;101220.66;105091;1259;81442;-63
2023/10/02 09:55:56;;;;;;;14.90;7.50;;;;;;;23.53;57.42;101218.42;105051;1260;73558;-63
2023/10/02 09:58:32;;;;;;;12.00;7.50;;;;;;;23.74;56.90;101214.33;105015;1260;69184;-63
2023/10/02 10:03:59;;;;;;;13.00;8.10;;;;;;;24.21;55.34;101208.23;105112;1262;74974;-63
2023/10/02 10:06:41;;;;;;;12.60;8.00;;;;;;;24.37;54.74;101209.41;105124;1260;82655;-63
2023/10/02 10:11:44;;;;;;;11.70;7.80;;;;;;;24.46;53.00;101206.31;105020;1260;69091;-63
2023/10/02 10:14:37;;;;;;;14.00;8.00;;;;;;;24.56;52.74;101201.92;105090;1262;69595;-62
2023/10/02 10:17:16;;;;;;;12.90;7.80;;;;;;;24.78;52.59;101203.84;105091;1260;74871;-63
2023/10/02 10:19:48;;;;;;;13.30;7.60;;;;;;;25.04;52.32;101193.95;105094;1259;83403;-63
2023/10/02 10:22:37;;;;;;;12.40;7.60;;;;;;;25.37;52.17;101192.05;105049;1262;72706;-63
2023/10/02 10:35:48;;;;;;;11.60;7.80;;;;;;;26.20;49.69;101207.33;105108;1260;73609;-63
2023/10/02 10:41:00;;;;;;;11.50;7.20;;;;;;;26.52;49.07;101205.27;105055;1259;69231;-63
2023/10/02 10:46:23;;;;;;;12.90;7.30;;;;;;;26.57;48.00;101199.65;105072;1259;82527;-63
2023/10/02 10:48:59;;;;;;;13.70;7.90;;;;;;;26.73;48.08;101198.88;105064;1260;73684;-63
2023/10/02 10:51:31;;;;;;;14.70;7.60;;;;;;;26.92;47.66;101192.11;105094;1261;69160;-63
2023/10/02 10:54:13;;;;;;;18.80;7.30;;;;;;;27.14;47.40;101188.44;105112;1259;69237;-63
2023/10/02 10:57:19;;;;;;;11.70;7.50;;;;;;;27.37;47.15;101183.52;105073;1262;74841;-63
2023/10/02 11:00:23;;;;;;;12.40;7.70;;;;;;;27.76;46.73;101176.97;105116;1262;83237;-63
2023/10/02 11:03:38;;;;;;;10.60;7.30;;;;;;;28.20;46.42;101179.38;105095;1262;71957;-61
2023/10/02 11:06:03;;;;;;;13.30;8.10;;;;;;;28.48;45.48;101182.42;105087;1262;69174;-62
2023/10/02 11:08:33;;;;;;;11.40;7.30;;;;;;;28.39;44.53;101176.06;105086;1262;69190;-62
2023/10/02 11:11:18;;;;;;;11.20;7.40;;;;;;;28.57;44.66;101175.61;105067;1260;75040;-62
2023/10/02 11:13:58;;;;;;;10.70;6.80;;;;;;;28.73;44.42;101174.65;105049;1259;81646;-62
2023/10/02 11:16:31;;;;;;;9.20;6.30;;;;;;;28.99;44.28;101170.73;105082;1260;73579;-62
2023/10/02 11:19:13;;;;;;;9.60;7.30;;;;;;;29.01;43.68;101168.58;105084;1258;69059;-62
2023/10/02 11:22:19;;;;;;;14.10;7.30;;;;;;;28.92;43.13;101169.17;105076;1263;69098;-62
2023/10/02 11:24:51;;;;;;;11.70;7.30;;;;;;;28.57;42.58;101165.63;105105;1260;74782;-62
2023/10/02 11:27:20;;;;;;;9.90;7.10;;;;;;;28.43;42.65;101156.13;105011;1262;82925;-62
2023/10/02 11:30:02;;;;;;;9.70;7.00;;;;;;;28.56;42.82;101157.17;105084;1262;72701;-62
2023/10/02 11:32:58;;;;;;;10.20;6.80;;;;;;;28.41;42.61;101156.34;105157;1261;69199;-62
2023/10/02 11:35:37;;;;;;;10.20;6.80;;;;;;;28.11;42.33;101150.68;105061;1261;69174;-62
2023/10/02 11:38:07;;;;;;;10.90;6.90;;;;;;;27.90;42.36;101147.40;105072;1260;74721;-62
2023/10/02 11:40:36;;;;;;;11.90;6.70;;;;;;;27.73;42.53;101145.23;105091;1262;83347;-62
2023/10/02 11:43:05;;;;;;;10.70;6.80;;;;;;;27.72;42.69;101147.30;105091;1262;74025;-62
2023/10/02 11:45:36;;;;;;;13.30;7.50;;;;;;;27.68;42.67;101145.39;105084;1259;69020;-62
2023/10/02 11:48:09;;;;;;;9.70;6.90;;;;;;;27.47;42.51;101142.40;105066;1260;69276;-62
2023/10/02 11:50:38;;;;;;;8.70;6.40;;;;;;;27.18;42.61;101136.55;105132;1262;74725;-62
2023/10/02 11:53:07;;;;;;;9.40;6.90;;;;;;;27.11;42.99;101138.44;105081;1262;83310;-62
2023/10/02 11:55:35;;;;;;;9.50;6.80;;;;;;;27.03;42.90;101136.14;104992;1262;72699;-62
2023/10/02 11:58:04;;;;;;;10.10;6.80;;;;;;;26.91;43.13;101133.46;105100;1262;69861;-61
2023/10/02 12:00:33;;;;;;;10.80;7.20;;;;;;;26.83;43.23;101134.28;105091;1262;69166;-61
2023/10/02 12:03:02;;;;;;;11.30;8.20;;;;;;;26.78;43.00;101129.95;105097;1260;74540;-62
2023/10/02 12:05:36;;;;;;;12.00;8.10;;;;;;;26.73;43.30;101127.23;105034;1262;83088;-61
2023/10/02 12:08:05;;;;;;;10.50;8.10;;;;;;;26.87;43.32;101122.58;105059;1261;73878;-61
2023/10/02 12:10:34;;;;;;;11.20;6.80;;;;;;;27.19;43.37;101117.80;105094;1260;69034;-61
2023/10/02 12:13:02;;;;;;;10.10;7.20;;;;;;;27.53;43.30;101113.98;105087;1262;69147;-61
2023/10/02 12:15:32;;;;;;;9.40;6.60;;;;;;;27.79;42.99;101116.09;105066;1262;74616;-61
2023/10/02 12:18:00;;;;;;;9.90;6.10;;;;;;;27.92;42.54;101111.83;105089;1260;83601;-61
2023/10/02 12:20:29;;;;;;;11.50;7.40;;;;;;;28.04;42.46;101107.39;105095;1260;73667;-61
2023/10/02 12:22:58;;;;;;;9.50;6.20;;;;;;;28.27;42.45;101104.91;105120;1262;69079;-61
2023/10/02 12:25:27;;;;;;;10.20;6.10;;;;;;;28.48;42.26;101104.01;105011;1260;69065;-63
2023/10/02 12:27:55;;;;;;;9.90;6.20;;;;;;;28.59;41.95;101103.48;105124;1262;75006;-62
2023/10/02 12:30:23;;;;;;;8.30;6.10;;;;;;;28.82;42.08;101099.80;105078;1262;83889;-62
2023/10/02 12:32:53;;;;;;;9.80;6.20;;;;;;;29.02;41.76;101099.69;105043;1260;72654;-62
2023/10/02 12:35:21;;;;;;;6.30;4.80;;;;;;;29.07;41.54;101097.98;105101;1261;69166;-62
2023/10/02 12:37:52;;;;;;;8.50;6.00;;;;;;;29.29;41.53;101094.63;105090;1262;69301;-62
2023/10/02 12:40:21;;;;;;;7.90;4.80;;;;;;;29.39;41.03;101091.90;105092;1259;73799;-62
2023/10/02 12:42:50;;;;;;;6.90;4.70;;;;;;;29.51;40.82;101084.92;105081;1260;83404;-62
2023/10/02 12:45:18;;;;;;;7.50;5.00;;;;;;;29.61;40.73;101083.21;105041;1259;73644;-62
2023/10/02 12:47:47;;;;;;;9.50;6.10;;;;;;;29.80;40.83;101080.00;105063;1260;69171;-62
2023/10/02 12:50:15;;;;;;;8.70;5.90;;;;;;;29.95;40.56;101076.91;105032;1261;69233;-62
2023/10/02 12:52:44;;;;;;;9.00;5.40;;;;;;;29.84;40.08;101082.30;104969;1260;75191;-62
2023/10/02 12:55:13;;;;;;;9.40;5.90;;;;;;;29.57;40.00;101082.48;104951;1262;82367;-62
2023/10/02 12:57:41;;;;;;;7.40;4.80;;;;;;;29.24;39.93;101074.39;104972;1260;73563;-62
2023/10/02 13:00:17;;;;;;;7.40;5.00;;;;;;;29.03;40.25;101070.48;104966;1262;69098;-62
2023/10/02 13:02:47;;;;;;;10.90;5.50;;;;;;;28.79;40.06;101073.85;105023;1260;69050;-62
2023/10/02 13:05:15;;;;;;;7.00;5.20;;;;;;;28.49;40.28;101067.98;105084;1262;74792;-62
2023/10/02 13:07:45;;;;;;;9.40;5.70;;;;;;;28.35;40.31;101068.52;105065;1262;83229;-62